KMXF/MXF METAR and TAF weather

Enter ICAO airport designator
Station Type Date Time Source
KMXF METAR 2021/05/11 22:56 UTC NOAA

KMXF 112256Z AUTO 00000KT 9SM BKN190 24/19 A2998 RMK AO2 SLP154 T02350188


Station Type Date Time Source
KMXF Decoded METAR 2021/05/11 22:56 UTC NOAA

Maxwell Air Force Base / Montgomery, AL, United States (KMXF) 32-23N 086-22W
May 11, 2021 - 06:56 PM EDT / 2021.05.11 2256 UTC
Wind: Calm:0
Visibility: 9 mile(s):0
Sky conditions: mostly cloudy
Temperature: 74.3 F (23.5 C)
Dew Point: 65.8 F (18.8 C)
Relative Humidity: 74%
Pressure (altimeter): 29.98 in. Hg (1015 hPa)
ob: KMXF 112256Z AUTO 00000KT 9SM BKN190 24/19 A2998 RMK AO2 SLP154 T02350188
cycle: 23

Station Type Date Time Source
KMXF TAF 2021/05/11 19:24 UTC NOAA

TAF KMXF 111900Z 1119/1301 VRB06KT 9999 FEW030 BKN050 QNH2997INS
BECMG 1120/1121 VRB06KT 9000 -SHRA SCT020 BKN040 QNH2995INS
BECMG 1123/1124 28009KT 8000 -SHRA VCTS BKN020 OVC030CB QNH2996INS
TEMPO 1204/1206 28010G15KT 4800 -TSRA BKN020CB
BECMG 1206/1207 VRB06KT 8000 -SHRA VCTS BKN020CB OVC030 QNH2998INS
BECMG 1215/1216 04010G20KT 9999 NSW BKN030 OVC040 QNH3001INS
BECMG 1221/1222 VRB06KT 9999 BKN040 QNH3005INS TX27/1120Z TN19/1214Z LAST NO
AMDS AFT 1203 NEXT 1211

Example: see airport list